Standort: A- 4920 Schildorn, St. Kollmann 6
Position: Ost 1327'49" Nord 4807'14" 563 m Seehhe
Werte der letzten 24 Stunden
Wetterdaten: aktuell Dienstag, 26.03.2019 09:35
Datum Zeit Temp. A. Feuchte A. Luftdruck Regen Richtung Richtung Sonnenschein UV Solar Windben
26.03.2019 09:35 3,6 C 81 % 1027,3 hPa 0,0 l/m N 360 45 min 1,5 UV-I 403 W/m 17,7 km/h
26.03.2019 08:35 3,4 C 79 % 1026,8 hPa 0,0 l/m N 360 56 min 1,0 UV-I 466 W/m 11,3 km/h
26.03.2019 07:35 1,7 C 83 % 1026,5 hPa 0,0 l/m N 360 18 min 0,0 UV-I 150 W/m 12,9 km/h
26.03.2019 06:35 1,2 C 83 % 1026,1 hPa 0,0 l/m N 360 0 min 0,0 UV-I 23 W/m 9,7 km/h
26.03.2019 05:35 1,1 C 83 % 1025,5 hPa 0,0 l/m N 360 0 min 0,0 UV-I 0 W/m 8,0 km/h
26.03.2019 04:35 1,2 C 82 % 1024,6 hPa 0,0 l/m N 360 0 min 0,0 UV-I 0 W/m 8,0 km/h
26.03.2019 03:35 1,2 C 82 % 1024,0 hPa 0,0 l/m N 360 0 min 0,0 UV-I 0 W/m 11,3 km/h
26.03.2019 02:35 1,3 C 82 % 1023,4 hPa 0,0 l/m N 360 0 min 0,0 UV-I 0 W/m 12,9 km/h
26.03.2019 01:35 1,6 C 83 % 1023,1 hPa 0,0 l/m N 360 0 min 0,0 UV-I 0 W/m 12,9 km/h
26.03.2019 00:35 1,9 C 83 % 1022,9 hPa 0,0 l/m N 360 0 min 0,0 UV-I 0 W/m 14,5 km/h
25.03.2019 23:35 1,9 C 82 % 1021,9 hPa 0,0 l/m N 360 0 min 0,0 UV-I 0 W/m 20,9 km/h
25.03.2019 22:35 1,8 C 83 % 1020,7 hPa 0,0 l/m N 360 0 min 0,0 UV-I 0 W/m 24,1 km/h
25.03.2019 21:35 2,2 C 83 % 1020,2 hPa 0,0 l/m N 360 0 min 0,0 UV-I 0 W/m 22,5 km/h
25.03.2019 20:35 2,6 C 82 % 1019,9 hPa 0,0 l/m N 360 0 min 0,0 UV-I 0 W/m 27,4 km/h
25.03.2019 19:35 2,9 C 81 % 1019,4 hPa 0,0 l/m N 360 0 min 0,0 UV-I 0 W/m 22,5 km/h
25.03.2019 18:35 2,1 C 82 % 1018,6 hPa 0,0 l/m N 360 0 min 0,0 UV-I 0 W/m 9,7 km/h
25.03.2019 17:35 4,2 C 76 % 1017,4 hPa 0,0 l/m N 360 0 min 0,0 UV-I 36 W/m 14,5 km/h
25.03.2019 16:35 3,4 C 81 % 1017,2 hPa 0,0 l/m N 360 4 min 0,0 UV-I 70 W/m 16,1 km/h
25.03.2019 15:35 6,3 C 67 % 1016,4 hPa 0,0 l/m N 360 16 min 0,8 UV-I 153 W/m 41,8 km/h
25.03.2019 14:35 8,1 C 53 % 1015,3 hPa 0,0 l/m N 360 16 min 1,2 UV-I 236 W/m 22,5 km/h
25.03.2019 13:35 8,1 C 53 % 1015,5 hPa 0,0 l/m N 360 36 min 1,7 UV-I 315 W/m 27,4 km/h
25.03.2019 12:35 7,4 C 54 % 1015,7 hPa 0,0 l/m N 360 19 min 2,0 UV-I 338 W/m 30,6 km/h
25.03.2019 11:35 6,9 C 62 % 1016,1 hPa 0,0 l/m N 360 22 min 1,3 UV-I 283 W/m 35,4 km/h
25.03.2019 10:35 7,3 C 66 % 1015,9 hPa 0,0 l/m N 360 13 min 2,5 UV-I 682 W/m 25,7 km/h
25.03.2019 10:00 6,2 C 67 % 1015,8 hPa 0,0 l/m N 360 0 min 0,9 UV-I 221 W/m 30,6 km/h
_ Min-Zeit 18:04 13:12 14:21 - - - - - - 18:25
Minimum _ 1,1 C 49 % 1015,2 hPa - - - - - - 0,0 km/h
_ Max-Zeit 14:24 17:55 09:19 10:00 - - 10:16 12:24 11:05 17:48
Maximum _ 8,6 C 83 % 1027,3 hPa 0,0 l/m - - 1 min 3,7 UV-I 870 W/m 49,9 km/h
N
Durchschnitt _ 3,7 C 75 % 1020,3 hPa #0,0 l/m N - #1:59 h 1,0 UV-I 245 W/m 19,9 km/h
Daten ab 1. Mai 2002 - die Jahresstatistiken sind aber falsch (grere Aufzeichnungslcken)